sensor_id;sensor_type;location;lat;lon;timestamp;temperature;humidity
2497;DHT22;1259;48.306;14.374;2023-07-16T00:01:00;26.70;66.60
2497;DHT22;1259;48.306;14.374;2023-07-16T00:03:27;26.70;66.80
2497;DHT22;1259;48.306;14.374;2023-07-16T00:05:54;26.60;67.20
2497;DHT22;1259;48.306;14.374;2023-07-16T00:08:21;26.70;67.20
2497;DHT22;1259;48.306;14.374;2023-07-16T00:10:48;26.60;68.00
2497;DHT22;1259;48.306;14.374;2023-07-16T00:13:14;26.40;68.50
2497;DHT22;1259;48.306;14.374;2023-07-16T00:15:41;26.40;68.60
2497;DHT22;1259;48.306;14.374;2023-07-16T00:18:09;26.30;68.80
2497;DHT22;1259;48.306;14.374;2023-07-16T00:20:36;26.40;68.70
2497;DHT22;1259;48.306;14.374;2023-07-16T00:23:02;26.40;68.30
2497;DHT22;1259;48.306;14.374;2023-07-16T00:25:29;26.50;68.00
2497;DHT22;1259;48.306;14.374;2023-07-16T00:27:56;26.50;68.20
2497;DHT22;1259;48.306;14.374;2023-07-16T00:30:23;26.40;68.10
2497;DHT22;1259;48.306;14.374;2023-07-16T00:32:50;26.40;68.20
2497;DHT22;1259;48.306;14.374;2023-07-16T00:35:18;26.40;68.10
2497;DHT22;1259;48.306;14.374;2023-07-16T00:37:44;26.50;68.20
2497;DHT22;1259;48.306;14.374;2023-07-16T00:40:11;26.50;68.60
2497;DHT22;1259;48.306;14.374;2023-07-16T00:42:38;26.40;68.60
2497;DHT22;1259;48.306;14.374;2023-07-16T00:45:08;26.50;68.30
2497;DHT22;1259;48.306;14.374;2023-07-16T00:47:35;26.50;68.80
2497;DHT22;1259;48.306;14.374;2023-07-16T00:50:02;26.40;68.60
2497;DHT22;1259;48.306;14.374;2023-07-16T00:52:30;26.50;68.70
2497;DHT22;1259;48.306;14.374;2023-07-16T00:54:57;26.50;68.40
2497;DHT22;1259;48.306;14.374;2023-07-16T00:57:24;26.50;68.70
2497;DHT22;1259;48.306;14.374;2023-07-16T00:59:51;26.60;68.70
2497;DHT22;1259;48.306;14.374;2023-07-16T01:02:18;26.40;68.60
2497;DHT22;1259;48.306;14.374;2023-07-16T01:04:44;26.30;69.10
2497;DHT22;1259;48.306;14.374;2023-07-16T01:07:11;26.50;69.00
2497;DHT22;1259;48.306;14.374;2023-07-16T01:09:41;26.60;68.30
2497;DHT22;1259;48.306;14.374;2023-07-16T01:12:08;26.40;69.50
2497;DHT22;1259;48.306;14.374;2023-07-16T01:14:35;26.40;69.40
2497;DHT22;1259;48.306;14.374;2023-07-16T01:17:02;26.50;69.10
2497;DHT22;1259;48.306;14.374;2023-07-16T01:19:29;26.40;69.70
2497;DHT22;1259;48.306;14.374;2023-07-16T01:21:59;26.30;70.00
2497;DHT22;1259;48.306;14.374;2023-07-16T01:24:34;26.20;70.20
2497;DHT22;1259;48.306;14.374;2023-07-16T01:27:11;26.30;70.30
2497;DHT22;1259;48.306;14.374;2023-07-16T01:29:45;26.30;69.60
2497;DHT22;1259;48.306;14.374;2023-07-16T01:32:14;26.40;69.80
2497;DHT22;1259;48.306;14.374;2023-07-16T01:34:41;26.30;70.10
2497;DHT22;1259;48.306;14.374;2023-07-16T01:37:09;26.40;69.60
2497;DHT22;1259;48.306;14.374;2023-07-16T01:39:36;26.40;69.30
2497;DHT22;1259;48.306;14.374;2023-07-16T01:42:03;26.40;69.60
2497;DHT22;1259;48.306;14.374;2023-07-16T01:44:30;26.40;69.40
2497;DHT22;1259;48.306;14.374;2023-07-16T01:47:05;26.40;69.60
2497;DHT22;1259;48.306;14.374;2023-07-16T01:49:32;26.30;70.30
2497;DHT22;1259;48.306;14.374;2023-07-16T01:51:59;26.20;70.60
2497;DHT22;1259;48.306;14.374;2023-07-16T01:54:26;26.20;70.60
2497;DHT22;1259;48.306;14.374;2023-07-16T01:56:52;26.20;70.40
2497;DHT22;1259;48.306;14.374;2023-07-16T01:59:19;26.30;70.30
2497;DHT22;1259;48.306;14.374;2023-07-16T02:01:46;26.30;70.30
2497;DHT22;1259;48.306;14.374;2023-07-16T02:04:14;26.30;70.20
2497;DHT22;1259;48.306;14.374;2023-07-16T02:06:41;26.30;70.20
2497;DHT22;1259;48.306;14.374;2023-07-16T02:09:07;26.30;70.60
2497;DHT22;1259;48.306;14.374;2023-07-16T02:11:34;26.30;70.20
2497;DHT22;1259;48.306;14.374;2023-07-16T02:14:01;26.40;70.30
2497;DHT22;1259;48.306;14.374;2023-07-16T02:16:28;26.20;71.50
2497;DHT22;1259;48.306;14.374;2023-07-16T02:18:54;26.10;72.30
2497;DHT22;1259;48.306;14.374;2023-07-16T02:21:22;26.10;72.40
2497;DHT22;1259;48.306;14.374;2023-07-16T02:23:49;25.90;73.30
2497;DHT22;1259;48.306;14.374;2023-07-16T02:26:16;25.80;73.60
2497;DHT22;1259;48.306;14.374;2023-07-16T02:28:43;25.70;74.20
2497;DHT22;1259;48.306;14.374;2023-07-16T02:31:09;25.60;74.20
2497;DHT22;1259;48.306;14.374;2023-07-16T02:33:36;25.50;74.80
2497;DHT22;1259;48.306;14.374;2023-07-16T02:36:03;25.20;75.50
2497;DHT22;1259;48.306;14.374;2023-07-16T02:38:31;25.10;76.00
2497;DHT22;1259;48.306;14.374;2023-07-16T02:40:58;24.90;76.50
2497;DHT22;1259;48.306;14.374;2023-07-16T02:43:24;24.80;76.90
2497;DHT22;1259;48.306;14.374;2023-07-16T02:45:51;24.70;77.40
2497;DHT22;1259;48.306;14.374;2023-07-16T02:48:18;24.60;77.80
2497;DHT22;1259;48.306;14.374;2023-07-16T02:50:44;24.60;78.00
2497;DHT22;1259;48.306;14.374;2023-07-16T02:53:11;24.50;78.30
2497;DHT22;1259;48.306;14.374;2023-07-16T02:55:39;24.60;78.20
2497;DHT22;1259;48.306;14.374;2023-07-16T02:58:06;24.50;79.00
2497;DHT22;1259;48.306;14.374;2023-07-16T03:00:33;24.30;79.50
2497;DHT22;1259;48.306;14.374;2023-07-16T03:02:59;24.30;79.80
2497;DHT22;1259;48.306;14.374;2023-07-16T03:05:26;24.30;80.60
2497;DHT22;1259;48.306;14.374;2023-07-16T03:07:53;24.30;80.30
2497;DHT22;1259;48.306;14.374;2023-07-16T03:10:20;24.40;80.80
2497;DHT22;1259;48.306;14.374;2023-07-16T03:12:48;24.30;80.80
2497;DHT22;1259;48.306;14.374;2023-07-16T03:15:15;24.40;81.30
2497;DHT22;1259;48.306;14.374;2023-07-16T03:17:42;24.30;81.50
2497;DHT22;1259;48.306;14.374;2023-07-16T03:20:09;24.20;82.20
2497;DHT22;1259;48.306;14.374;2023-07-16T03:22:35;23.70;84.80
2497;DHT22;1259;48.306;14.374;2023-07-16T03:25:02;23.50;86.70
2497;DHT22;1259;48.306;14.374;2023-07-16T03:27:29;23.50;87.50
2497;DHT22;1259;48.306;14.374;2023-07-16T03:29:57;23.70;88.00
2497;DHT22;1259;48.306;14.374;2023-07-16T03:32:24;23.60;88.20
2497;DHT22;1259;48.306;14.374;2023-07-16T03:34:51;23.40;90.10
2497;DHT22;1259;48.306;14.374;2023-07-16T03:37:17;23.40;90.60
2497;DHT22;1259;48.306;14.374;2023-07-16T03:39:44;23.40;90.80
2497;DHT22;1259;48.306;14.374;2023-07-16T03:42:11;23.20;91.60
2497;DHT22;1259;48.306;14.374;2023-07-16T03:44:38;23.20;92.00
2497;DHT22;1259;48.306;14.374;2023-07-16T03:47:06;23.30;92.40
2497;DHT22;1259;48.306;14.374;2023-07-16T03:49:32;23.30;92.50
2497;DHT22;1259;48.306;14.374;2023-07-16T03:51:59;23.30;92.40
2497;DHT22;1259;48.306;14.374;2023-07-16T03:54:26;23.40;92.50
2497;DHT22;1259;48.306;14.374;2023-07-16T03:56:52;23.20;92.70
2497;DHT22;1259;48.306;14.374;2023-07-16T03:59:19;23.40;92.10
2497;DHT22;1259;48.306;14.374;2023-07-16T04:01:46;23.40;92.00
2497;DHT22;1259;48.306;14.374;2023-07-16T04:04:14;23.30;92.30
2497;DHT22;1259;48.306;14.374;2023-07-16T04:06:40;23.30;92.40
2497;DHT22;1259;48.306;14.374;2023-07-16T04:09:07;23.40;92.20
2497;DHT22;1259;48.306;14.374;2023-07-16T04:11:34;23.40;92.10
2497;DHT22;1259;48.306;14.374;2023-07-16T04:14:00;23.30;91.90
2497;DHT22;1259;48.306;14.374;2023-07-16T04:16:27;23.40;91.90
2497;DHT22;1259;48.306;14.374;2023-07-16T04:18:54;23.40;92.00
2497;DHT22;1259;48.306;14.374;2023-07-16T04:21:22;23.40;92.20
2497;DHT22;1259;48.306;14.374;2023-07-16T04:23:48;23.40;92.10
2497;DHT22;1259;48.306;14.374;2023-07-16T04:26:15;23.30;92.20
2497;DHT22;1259;48.306;14.374;2023-07-16T04:28:42;23.30;92.50
2497;DHT22;1259;48.306;14.374;2023-07-16T04:31:08;23.30;92.90
2497;DHT22;1259;48.306;14.374;2023-07-16T04:33:35;23.30;93.10
2497;DHT22;1259;48.306;14.374;2023-07-16T04:36:02;23.30;93.10
2497;DHT22;1259;48.306;14.374;2023-07-16T04:38:30;23.30;93.10
2497;DHT22;1259;48.306;14.374;2023-07-16T04:40:57;23.30;93.50
2497;DHT22;1259;48.306;14.374;2023-07-16T04:43:23;23.30;93.30
2497;DHT22;1259;48.306;14.374;2023-07-16T04:45:50;23.30;93.30
2497;DHT22;1259;48.306;14.374;2023-07-16T04:48:17;23.30;93.30
2497;DHT22;1259;48.306;14.374;2023-07-16T04:50:43;23.30;93.20
2497;DHT22;1259;48.306;14.374;2023-07-16T04:53:10;23.30;93.30
2497;DHT22;1259;48.306;14.374;2023-07-16T04:55:38;23.30;93.20
2497;DHT22;1259;48.306;14.374;2023-07-16T04:58:05;23.30;93.60
2497;DHT22;1259;48.306;14.374;2023-07-16T05:00:32;23.30;94.00
2497;DHT22;1259;48.306;14.374;2023-07-16T05:02:59;23.30;94.40
2497;DHT22;1259;48.306;14.374;2023-07-16T05:05:26;23.30;94.20
2497;DHT22;1259;48.306;14.374;2023-07-16T05:07:53;23.30;94.60
2497;DHT22;1259;48.306;14.374;2023-07-16T05:10:20;23.40;94.60
2497;DHT22;1259;48.306;14.374;2023-07-16T05:12:48;23.40;94.80
2497;DHT22;1259;48.306;14.374;2023-07-16T05:15:14;23.30;95.50
2497;DHT22;1259;48.306;14.374;2023-07-16T05:17:41;23.30;96.40
2497;DHT22;1259;48.306;14.374;2023-07-16T05:20:08;23.20;97.00
2497;DHT22;1259;48.306;14.374;2023-07-16T05:22:35;23.20;97.50
2497;DHT22;1259;48.306;14.374;2023-07-16T05:25:02;23.20;98.20
2497;DHT22;1259;48.306;14.374;2023-07-16T05:27:29;23.10;99.10
2497;DHT22;1259;48.306;14.374;2023-07-16T05:29:57;23.10;99.90
2497;DHT22;1259;48.306;14.374;2023-07-16T05:32:23;23.10;99.90
2497;DHT22;1259;48.306;14.374;2023-07-16T05:34:50;23.00;99.90
2497;DHT22;1259;48.306;14.374;2023-07-16T05:37:17;23.10;99.90
2497;DHT22;1259;48.306;14.374;2023-07-16T05:39:43;23.20;99.90
2497;DHT22;1259;48.306;14.374;2023-07-16T05:42:10;23.20;99.90
2497;DHT22;1259;48.306;14.374;2023-07-16T05:44:37;23.10;99.90
2497;DHT22;1259;48.306;14.374;2023-07-16T05:47:05;23.10;99.90
2497;DHT22;1259;48.306;14.374;2023-07-16T05:49:32;23.10;99.90
2497;DHT22;1259;48.306;14.374;2023-07-16T05:51:58;23.20;99.90
2497;DHT22;1259;48.306;14.374;2023-07-16T05:54:25;23.20;99.90
2497;DHT22;1259;48.306;14.374;2023-07-16T05:56:52;23.30;99.90
2497;DHT22;1259;48.306;14.374;2023-07-16T05:59:18;23.20;99.90
2497;DHT22;1259;48.306;14.374;2023-07-16T06:01:45;23.20;99.90
2497;DHT22;1259;48.306;14.374;2023-07-16T06:04:13;23.30;99.90
2497;DHT22;1259;48.306;14.374;2023-07-16T06:06:40;23.30;99.90
2497;DHT22;1259;48.306;14.374;2023-07-16T06:09:06;23.40;99.90
2497;DHT22;1259;48.306;14.374;2023-07-16T06:11:33;23.20;99.90
2497;DHT22;1259;48.306;14.374;2023-07-16T06:14:00;23.30;99.90
2497;DHT22;1259;48.306;14.374;2023-07-16T06:16:26;23.40;99.90
2497;DHT22;1259;48.306;14.374;2023-07-16T06:18:53;23.40;99.90
2497;DHT22;1259;48.306;14.374;2023-07-16T06:21:21;23.40;99.90
2497;DHT22;1259;48.306;14.374;2023-07-16T06:23:48;23.40;99.90
2497;DHT22;1259;48.306;14.374;2023-07-16T06:26:14;23.30;99.90
2497;DHT22;1259;48.306;14.374;2023-07-16T06:28:41;23.30;99.90
2497;DHT22;1259;48.306;14.374;2023-07-16T06:31:08;23.30;99.90
2497;DHT22;1259;48.306;14.374;2023-07-16T06:33:34;23.30;99.90
2497;DHT22;1259;48.306;14.374;2023-07-16T06:36:01;23.20;99.90
2497;DHT22;1259;48.306;14.374;2023-07-16T06:38:29;23.30;99.90
2497;DHT22;1259;48.306;14.374;2023-07-16T06:40:56;23.40;99.90
2497;DHT22;1259;48.306;14.374;2023-07-16T06:43:23;23.50;99.90
2497;DHT22;1259;48.306;14.374;2023-07-16T06:45:49;23.40;99.90
2497;DHT22;1259;48.306;14.374;2023-07-16T06:48:16;23.50;99.90
2497;DHT22;1259;48.306;14.374;2023-07-16T06:50:43;23.40;99.90
2497;DHT22;1259;48.306;14.374;2023-07-16T06:53:10;23.40;99.90
2497;DHT22;1259;48.306;14.374;2023-07-16T06:55:38;23.40;99.90
2497;DHT22;1259;48.306;14.374;2023-07-16T06:58:04;23.40;99.90
2497;DHT22;1259;48.306;14.374;2023-07-16T07:00:31;23.30;99.90
2497;DHT22;1259;48.306;14.374;2023-07-16T07:02:58;23.40;99.90
2497;DHT22;1259;48.306;14.374;2023-07-16T07:05:25;23.50;99.90
2497;DHT22;1259;48.306;14.374;2023-07-16T07:07:51;23.40;99.90
2497;DHT22;1259;48.306;14.374;2023-07-16T07:10:18;23.50;99.90
2497;DHT22;1259;48.306;14.374;2023-07-16T07:12:46;23.60;99.90
2497;DHT22;1259;48.306;14.374;2023-07-16T07:15:13;23.60;99.90
2497;DHT22;1259;48.306;14.374;2023-07-16T07:17:39;23.70;99.90
2497;DHT22;1259;48.306;14.374;2023-07-16T07:20:08;23.70;99.90
2497;DHT22;1259;48.306;14.374;2023-07-16T07:22:35;23.60;99.90
2497;DHT22;1259;48.306;14.374;2023-07-16T07:25:02;23.60;99.90
2497;DHT22;1259;48.306;14.374;2023-07-16T07:27:28;23.40;99.90
2497;DHT22;1259;48.306;14.374;2023-07-16T07:29:56;23.60;99.90
2497;DHT22;1259;48.306;14.374;2023-07-16T07:32:23;23.60;99.90
2497;DHT22;1259;48.306;14.374;2023-07-16T07:34:50;23.70;99.90
2497;DHT22;1259;48.306;14.374;2023-07-16T07:37:16;23.60;99.90
2497;DHT22;1259;48.306;14.374;2023-07-16T07:39:43;23.80;99.90
2497;DHT22;1259;48.306;14.374;2023-07-16T07:42:13;23.90;99.90
2497;DHT22;1259;48.306;14.374;2023-07-16T07:44:39;23.90;99.90
2497;DHT22;1259;48.306;14.374;2023-07-16T07:47:07;23.90;99.90
2497;DHT22;1259;48.306;14.374;2023-07-16T07:49:34;23.90;99.90
2497;DHT22;1259;48.306;14.374;2023-07-16T07:52:01;23.80;99.90
2497;DHT22;1259;48.306;14.374;2023-07-16T07:54:28;23.80;99.90
2497;DHT22;1259;48.306;14.374;2023-07-16T07:56:54;23.90;99.90
2497;DHT22;1259;48.306;14.374;2023-07-16T07:59:21;23.90;99.90
2497;DHT22;1259;48.306;14.374;2023-07-16T08:01:48;24.00;99.90
2497;DHT22;1259;48.306;14.374;2023-07-16T08:04:16;24.20;99.90
2497;DHT22;1259;48.306;14.374;2023-07-16T08:06:42;24.30;99.90
2497;DHT22;1259;48.306;14.374;2023-07-16T08:09:09;24.20;99.90
2497;DHT22;1259;48.306;14.374;2023-07-16T08:11:36;24.20;99.90
2497;DHT22;1259;48.306;14.374;2023-07-16T08:14:03;24.30;99.90
2497;DHT22;1259;48.306;14.374;2023-07-16T08:16:29;24.20;99.90
2497;DHT22;1259;48.306;14.374;2023-07-16T08:18:56;24.10;99.90
2497;DHT22;1259;48.306;14.374;2023-07-16T08:21:24;24.10;99.90
2497;DHT22;1259;48.306;14.374;2023-07-16T08:23:51;24.20;99.90
2497;DHT22;1259;48.306;14.374;2023-07-16T08:26:18;24.40;99.90
2497;DHT22;1259;48.306;14.374;2023-07-16T08:28:44;24.80;99.90
2497;DHT22;1259;48.306;14.374;2023-07-16T08:31:11;25.00;99.90
2497;DHT22;1259;48.306;14.374;2023-07-16T08:33:38;24.90;99.90
2497;DHT22;1259;48.306;14.374;2023-07-16T08:36:05;25.10;99.90
2497;DHT22;1259;48.306;14.374;2023-07-16T08:38:33;24.90;99.90
2497;DHT22;1259;48.306;14.374;2023-07-16T08:41:00;25.10;99.90
2497;DHT22;1259;48.306;14.374;2023-07-16T08:43:26;25.50;99.90
2497;DHT22;1259;48.306;14.374;2023-07-16T08:45:54;25.70;99.90
2497;DHT22;1259;48.306;14.374;2023-07-16T08:48:22;25.80;99.90
2497;DHT22;1259;48.306;14.374;2023-07-16T08:50:48;25.80;99.90
2497;DHT22;1259;48.306;14.374;2023-07-16T08:53:15;25.90;99.90
2497;DHT22;1259;48.306;14.374;2023-07-16T08:55:44;26.10;99.90
2497;DHT22;1259;48.306;14.374;2023-07-16T08:58:11;26.30;99.90
2497;DHT22;1259;48.306;14.374;2023-07-16T09:00:40;26.20;99.90
2497;DHT22;1259;48.306;14.374;2023-07-16T09:03:06;26.30;99.90
2497;DHT22;1259;48.306;14.374;2023-07-16T09:05:33;26.50;99.90
2497;DHT22;1259;48.306;14.374;2023-07-16T09:08:01;26.40;99.90
2497;DHT22;1259;48.306;14.374;2023-07-16T09:10:28;26.60;99.90
2497;DHT22;1259;48.306;14.374;2023-07-16T09:12:57;26.70;99.90
2497;DHT22;1259;48.306;14.374;2023-07-16T09:15:25;26.70;99.90
2497;DHT22;1259;48.306;14.374;2023-07-16T09:17:53;27.00;99.90
2497;DHT22;1259;48.306;14.374;2023-07-16T09:20:20;27.30;99.90
2497;DHT22;1259;48.306;14.374;2023-07-16T09:22:49;27.30;99.90
2497;DHT22;1259;48.306;14.374;2023-07-16T09:25:15;27.00;99.90
2497;DHT22;1259;48.306;14.374;2023-07-16T09:27:42;27.20;99.90
2497;DHT22;1259;48.306;14.374;2023-07-16T09:30:15;27.40;99.90
2497;DHT22;1259;48.306;14.374;2023-07-16T09:32:42;27.40;99.90
2497;DHT22;1259;48.306;14.374;2023-07-16T09:35:09;27.60;99.90
2497;DHT22;1259;48.306;14.374;2023-07-16T09:37:36;27.50;99.90
2497;DHT22;1259;48.306;14.374;2023-07-16T09:40:03;27.60;99.90
2497;DHT22;1259;48.306;14.374;2023-07-16T09:42:32;27.70;99.90
2497;DHT22;1259;48.306;14.374;2023-07-16T09:45:00;27.50;99.90
2497;DHT22;1259;48.306;14.374;2023-07-16T09:47:29;27.80;99.90
2497;DHT22;1259;48.306;14.374;2023-07-16T09:49:55;27.70;99.90
2497;DHT22;1259;48.306;14.374;2023-07-16T09:52:23;27.90;99.60
2497;DHT22;1259;48.306;14.374;2023-07-16T09:54:51;27.90;99.10
2497;DHT22;1259;48.306;14.374;2023-07-16T09:57:18;28.00;98.50
2497;DHT22;1259;48.306;14.374;2023-07-16T09:59:46;28.20;99.10
2497;DHT22;1259;48.306;14.374;2023-07-16T10:02:13;28.40;98.20
2497;DHT22;1259;48.306;14.374;2023-07-16T10:04:42;28.30;98.30
2497;DHT22;1259;48.306;14.374;2023-07-16T10:07:19;28.50;97.90
2497;DHT22;1259;48.306;14.374;2023-07-16T10:09:50;28.60;96.70
2497;DHT22;1259;48.306;14.374;2023-07-16T10:12:17;28.30;96.90
2497;DHT22;1259;48.306;14.374;2023-07-16T10:14:45;28.40;96.40
2497;DHT22;1259;48.306;14.374;2023-07-16T10:17:12;28.60;96.00
2497;DHT22;1259;48.306;14.374;2023-07-16T10:19:52;28.60;95.10
2497;DHT22;1259;48.306;14.374;2023-07-16T10:22:30;28.70;95.50
2497;DHT22;1259;48.306;14.374;2023-07-16T10:24:57;28.50;94.40
2497;DHT22;1259;48.306;14.374;2023-07-16T10:27:27;28.80;94.00
2497;DHT22;1259;48.306;14.374;2023-07-16T10:29:54;28.80;94.20
2497;DHT22;1259;48.306;14.374;2023-07-16T10:32:21;28.60;94.00
2497;DHT22;1259;48.306;14.374;2023-07-16T10:34:48;28.80;94.10
2497;DHT22;1259;48.306;14.374;2023-07-16T10:37:16;29.10;92.70
2497;DHT22;1259;48.306;14.374;2023-07-16T10:39:46;29.00;92.30
2497;DHT22;1259;48.306;14.374;2023-07-16T10:42:13;29.10;92.60
2497;DHT22;1259;48.306;14.374;2023-07-16T10:44:40;29.10;93.30
2497;DHT22;1259;48.306;14.374;2023-07-16T10:47:06;29.20;93.50
2497;DHT22;1259;48.306;14.374;2023-07-16T10:49:34;29.20;92.10
2497;DHT22;1259;48.306;14.374;2023-07-16T10:52:01;29.20;93.10
2497;DHT22;1259;48.306;14.374;2023-07-16T10:54:29;29.00;92.80
2497;DHT22;1259;48.306;14.374;2023-07-16T10:56:56;29.00;92.30
2497;DHT22;1259;48.306;14.374;2023-07-16T10:59:22;28.60;91.90
2497;DHT22;1259;48.306;14.374;2023-07-16T11:01:49;29.00;92.60
2497;DHT22;1259;48.306;14.374;2023-07-16T11:04:16;29.10;91.90
2497;DHT22;1259;48.306;14.374;2023-07-16T11:06:43;29.30;92.20
2497;DHT22;1259;48.306;14.374;2023-07-16T11:09:09;29.20;92.10
2497;DHT22;1259;48.306;14.374;2023-07-16T11:11:38;29.30;91.30
2497;DHT22;1259;48.306;14.374;2023-07-16T11:14:05;29.40;91.20
2497;DHT22;1259;48.306;14.374;2023-07-16T11:16:33;29.00;91.60
2497;DHT22;1259;48.306;14.374;2023-07-16T11:19:00;29.20;91.80
2497;DHT22;1259;48.306;14.374;2023-07-16T11:21:27;29.60;91.50
2497;DHT22;1259;48.306;14.374;2023-07-16T11:23:54;29.30;91.20
2497;DHT22;1259;48.306;14.374;2023-07-16T11:26:21;29.40;90.20
2497;DHT22;1259;48.306;14.374;2023-07-16T11:28:49;29.40;89.80
2497;DHT22;1259;48.306;14.374;2023-07-16T11:31:17;29.70;90.40
2497;DHT22;1259;48.306;14.374;2023-07-16T11:33:43;29.50;89.50
2497;DHT22;1259;48.306;14.374;2023-07-16T11:36:10;29.60;89.20
2497;DHT22;1259;48.306;14.374;2023-07-16T11:38:37;29.60;90.30
2497;DHT22;1259;48.306;14.374;2023-07-16T11:41:04;29.70;90.20
2497;DHT22;1259;48.306;14.374;2023-07-16T11:43:33;29.60;88.50
2497;DHT22;1259;48.306;14.374;2023-07-16T11:46:01;29.20;90.20
2497;DHT22;1259;48.306;14.374;2023-07-16T11:48:28;29.60;90.50
2497;DHT22;1259;48.306;14.374;2023-07-16T11:50:55;29.80;87.40
2497;DHT22;1259;48.306;14.374;2023-07-16T11:53:21;30.00;89.60
2497;DHT22;1259;48.306;14.374;2023-07-16T11:55:48;29.80;86.30
2497;DHT22;1259;48.306;14.374;2023-07-16T11:58:15;29.60;86.10
2497;DHT22;1259;48.306;14.374;2023-07-16T12:00:42;29.60;87.60
2497;DHT22;1259;48.306;14.374;2023-07-16T12:03:10;29.40;88.10
2497;DHT22;1259;48.306;14.374;2023-07-16T12:05:36;29.30;87.50
2497;DHT22;1259;48.306;14.374;2023-07-16T12:08:03;29.60;87.70
2497;DHT22;1259;48.306;14.374;2023-07-16T12:10:30;29.40;88.20
2497;DHT22;1259;48.306;14.374;2023-07-16T12:12:57;29.40;87.50
2497;DHT22;1259;48.306;14.374;2023-07-16T12:15:23;29.70;89.00
2497;DHT22;1259;48.306;14.374;2023-07-16T12:17:50;30.00;88.00
2497;DHT22;1259;48.306;14.374;2023-07-16T12:20:18;29.80;85.30
2497;DHT22;1259;48.306;14.374;2023-07-16T12:22:45;29.90;86.80
2497;DHT22;1259;48.306;14.374;2023-07-16T12:25:11;30.00;87.60
2497;DHT22;1259;48.306;14.374;2023-07-16T12:27:38;29.80;85.50
2497;DHT22;1259;48.306;14.374;2023-07-16T12:30:05;30.00;87.00
2497;DHT22;1259;48.306;14.374;2023-07-16T12:32:33;30.00;86.90
2497;DHT22;1259;48.306;14.374;2023-07-16T12:34:59;29.90;83.10
2497;DHT22;1259;48.306;14.374;2023-07-16T12:37:27;30.00;83.10
2497;DHT22;1259;48.306;14.374;2023-07-16T12:39:54;30.00;82.80
2497;DHT22;1259;48.306;14.374;2023-07-16T12:42:21;29.90;84.30
2497;DHT22;1259;48.306;14.374;2023-07-16T12:44:48;30.00;85.10
2497;DHT22;1259;48.306;14.374;2023-07-16T12:47:15;30.10;85.00
2497;DHT22;1259;48.306;14.374;2023-07-16T12:49:42;30.40;85.20
2497;DHT22;1259;48.306;14.374;2023-07-16T12:52:09;30.40;84.40
2497;DHT22;1259;48.306;14.374;2023-07-16T12:54:37;30.40;83.00
2497;DHT22;1259;48.306;14.374;2023-07-16T12:57:04;30.40;81.90
2497;DHT22;1259;48.306;14.374;2023-07-16T12:59:31;30.50;82.40
2497;DHT22;1259;48.306;14.374;2023-07-16T13:01:57;30.50;80.40
2497;DHT22;1259;48.306;14.374;2023-07-16T13:04:24;30.60;81.40
2497;DHT22;1259;48.306;14.374;2023-07-16T13:06:51;30.60;81.00
2497;DHT22;1259;48.306;14.374;2023-07-16T13:09:20;30.60;81.30
2497;DHT22;1259;48.306;14.374;2023-07-16T13:11:49;30.70;79.90
2497;DHT22;1259;48.306;14.374;2023-07-16T13:14:16;30.70;79.80
2497;DHT22;1259;48.306;14.374;2023-07-16T13:16:43;30.70;78.60
2497;DHT22;1259;48.306;14.374;2023-07-16T13:19:09;30.70;80.70
2497;DHT22;1259;48.306;14.374;2023-07-16T13:21:36;30.80;80.20
2497;DHT22;1259;48.306;14.374;2023-07-16T13:24:03;30.60;78.00
2497;DHT22;1259;48.306;14.374;2023-07-16T13:26:30;30.80;78.90
2497;DHT22;1259;48.306;14.374;2023-07-16T13:28:58;30.80;79.70
2497;DHT22;1259;48.306;14.374;2023-07-16T13:31:25;30.80;79.00
2497;DHT22;1259;48.306;14.374;2023-07-16T13:33:51;30.90;78.20
2497;DHT22;1259;48.306;14.374;2023-07-16T13:36:18;30.90;78.10
2497;DHT22;1259;48.306;14.374;2023-07-16T13:38:44;30.80;77.90
2497;DHT22;1259;48.306;14.374;2023-07-16T13:41:11;30.80;75.30
2497;DHT22;1259;48.306;14.374;2023-07-16T13:43:38;30.60;77.80
2497;DHT22;1259;48.306;14.374;2023-07-16T13:46:06;30.70;77.70
2497;DHT22;1259;48.306;14.374;2023-07-16T13:48:32;30.80;77.10
2497;DHT22;1259;48.306;14.374;2023-07-16T13:50:59;30.90;79.30
2497;DHT22;1259;48.306;14.374;2023-07-16T13:53:26;30.90;77.90
2497;DHT22;1259;48.306;14.374;2023-07-16T13:55:52;30.80;76.00
2497;DHT22;1259;48.306;14.374;2023-07-16T13:58:19;30.80;76.50
2497;DHT22;1259;48.306;14.374;2023-07-16T14:00:46;30.80;75.20
2497;DHT22;1259;48.306;14.374;2023-07-16T14:03:14;30.70;74.10
2497;DHT22;1259;48.306;14.374;2023-07-16T14:05:41;30.70;76.30
2497;DHT22;1259;48.306;14.374;2023-07-16T14:08:07;30.80;75.20
2497;DHT22;1259;48.306;14.374;2023-07-16T14:10:34;30.80;75.70
2497;DHT22;1259;48.306;14.374;2023-07-16T14:13:01;30.90;74.50
2497;DHT22;1259;48.306;14.374;2023-07-16T14:15:27;30.70;73.80
2497;DHT22;1259;48.306;14.374;2023-07-16T14:17:54;30.50;74.80
2497;DHT22;1259;48.306;14.374;2023-07-16T14:20:22;30.50;73.70
2497;DHT22;1259;48.306;14.374;2023-07-16T14:22:49;30.20;74.40
2497;DHT22;1259;48.306;14.374;2023-07-16T14:25:15;30.20;73.90
2497;DHT22;1259;48.306;14.374;2023-07-16T14:27:43;30.30;75.00
2497;DHT22;1259;48.306;14.374;2023-07-16T14:30:10;30.40;72.90
2497;DHT22;1259;48.306;14.374;2023-07-16T14:32:37;30.60;72.20
2497;DHT22;1259;48.306;14.374;2023-07-16T14:35:04;30.60;71.80
2497;DHT22;1259;48.306;14.374;2023-07-16T14:37:32;30.50;72.10
2497;DHT22;1259;48.306;14.374;2023-07-16T14:39:59;30.40;72.70
2497;DHT22;1259;48.306;14.374;2023-07-16T14:42:25;30.50;73.50
2497;DHT22;1259;48.306;14.374;2023-07-16T14:44:52;30.60;73.60
2497;DHT22;1259;48.306;14.374;2023-07-16T14:47:19;30.60;73.50
2497;DHT22;1259;48.306;14.374;2023-07-16T14:49:45;30.70;72.00
2497;DHT22;1259;48.306;14.374;2023-07-16T14:52:12;30.70;72.30
2497;DHT22;1259;48.306;14.374;2023-07-16T14:54:40;30.80;71.60
2497;DHT22;1259;48.306;14.374;2023-07-16T14:57:07;30.80;72.00
2497;DHT22;1259;48.306;14.374;2023-07-16T14:59:33;30.80;72.80
2497;DHT22;1259;48.306;14.374;2023-07-16T15:02:02;30.70;72.80
2497;DHT22;1259;48.306;14.374;2023-07-16T15:04:29;30.60;70.80
2497;DHT22;1259;48.306;14.374;2023-07-16T15:06:55;30.70;70.90
2497;DHT22;1259;48.306;14.374;2023-07-16T15:09:22;30.60;70.50
2497;DHT22;1259;48.306;14.374;2023-07-16T15:11:50;30.60;68.40
2497;DHT22;1259;48.306;14.374;2023-07-16T15:14:17;30.60;69.00
2497;DHT22;1259;48.306;14.374;2023-07-16T15:16:44;30.60;68.00
2497;DHT22;1259;48.306;14.374;2023-07-16T15:19:10;30.60;67.30
2497;DHT22;1259;48.306;14.374;2023-07-16T15:21:37;30.50;67.00
2497;DHT22;1259;48.306;14.374;2023-07-16T15:24:05;30.50;67.00
2497;DHT22;1259;48.306;14.374;2023-07-16T15:26:31;30.50;67.40
2497;DHT22;1259;48.306;14.374;2023-07-16T15:28:59;30.50;68.10
2497;DHT22;1259;48.306;14.374;2023-07-16T15:31:26;30.50;68.10
2497;DHT22;1259;48.306;14.374;2023-07-16T15:33:54;30.50;67.60
2497;DHT22;1259;48.306;14.374;2023-07-16T15:36:21;30.50;66.70
2497;DHT22;1259;48.306;14.374;2023-07-16T15:38:48;30.40;68.90
2497;DHT22;1259;48.306;14.374;2023-07-16T15:41:15;30.50;68.90
2497;DHT22;1259;48.306;14.374;2023-07-16T15:43:43;30.50;68.90